Chadstone Weather > Observations for 30/09/20

Select Day:



Observations
Time Temp Hum DP Wind Gust Dir Rain >9am Press
C % C kph kph mm hPa
00:00 16.8 59 8.7 9.8 25.6 NNE 0.0 1021.4
00:10 16.8 59 8.7 8.9 15.8 NE 0.0 1021.2
00:20 16.6 59 8.6 7.5 13.3 NE 0.0 1021.0
00:30 16.5 60 8.7 6.3 13.3 NNE 0.0 1020.9
00:40 16.4 59 8.4 7.6 15.8 NE 0.0 1020.8
00:50 16.4 59 8.4 7.5 18.4 NNE 0.0 1020.5
01:00 16.3 59 8.3 6.8 15.8 N 0.0 1020.6
01:10 16.3 59 8.3 5.9 11.2 N 0.0 1020.4
01:20 16.3 59 8.3 7.1 14.8 NNW 0.0 1020.3
01:30 16.5 58 8.2 7.4 14.8 N 0.0 1020.4
01:40 16.5 58 8.2 6.1 11.2 NNW 0.0 1020.2
01:50 16.4 58 8.1 4.8 9.7 NNW 0.0 1020.0
02:00 16.3 58 8.0 4.6 11.2 N 0.0 1019.7
02:10 16.3 58 8.0 5.5 9.7 N 0.0 1019.6
02:20 16.2 58 7.9 3.7 7.2 NNW 0.0 1019.4
02:30 16.1 59 8.1 2.2 7.2 N 0.0 1019.0
02:40 16.1 60 8.3 3.3 8.6 N 0.0 1019.0
02:50 16.1 59 8.1 3.5 9.7 N 0.0 1018.9
03:00 16.0 59 8.0 3.0 8.6 NNE 0.0 1018.9
03:10 15.8 63 8.8 1.5 3.6 NNW 0.0 1018.7
03:20 15.5 64 8.7 0.4 3.6 N 0.0 1018.4
03:30 15.3 65 8.8 0.5 3.6 WNW 0.0 1018.5
03:40 15.2 65 8.7 1.3 3.6 WNW 0.0 1018.2
03:50 15.1 66 8.8 0.0 2.5 NNE 0.0 1018.0
04:00 15.0 67 8.9 0.2 2.5 NW 0.0 1018.0
04:10 14.8 68 9.0 2.2 7.2 WNW 0.0 1018.2
04:20 14.8 68 9.0 2.7 7.2 WNW 0.0 1018.4
04:30 14.9 68 9.1 5.6 14.8 W 0.0 1018.7
04:40 14.9 69 9.3 4.9 11.2 NW 0.0 1018.7
04:50 15.0 67 8.9 7.0 13.3 NW 0.0 1018.8
05:00 15.0 67 8.9 6.8 13.3 NNW 0.0 1018.8
05:10 15.0 67 8.9 7.4 15.8 WNW 0.0 1018.7
05:20 15.2 66 8.9 10.0 18.4 NNW 0.0 1018.7
05:30 15.0 68 9.1 3.9 8.6 NW 0.0 1018.8
05:40 14.8 70 9.4 4.6 7.2 W 0.0 1018.9
05:50 14.7 71 9.5 2.7 5.0 N 0.0 1019.0
06:00 14.7 71 9.5 2.5 5.0 N 0.0 1018.9
06:10 14.7 71 9.5 2.5 5.0 N 0.0 1018.8
06:20 14.7 71 9.5 2.5 5.0 N 0.0 1018.9
06:30 14.7 71 9.5 2.5 5.0 N 0.0 1019.0
06:40 14.7 71 9.5 2.5 5.0 N 0.0 1019.0
06:50 14.7 71 9.5 2.5 5.0 N 0.0 1019.0
07:00 14.7 71 9.5 2.5 5.0 N 0.0 1019.1
07:10 14.7 71 9.5 2.5 5.0 N 0.0 1019.0
07:20 14.7 71 9.5 2.5 5.0 N 0.0 1019.1
07:30 14.7 71 9.5 2.5 5.0 N 0.0 1019.3
07:40 14.7 71 9.5 2.5 5.0 N 0.0 1019.0
07:50 14.7 71 9.5 2.5 5.0 N 0.0 1019.1
08:00 14.7 71 9.5 2.5 5.0 N 0.0 1019.0
08:10 14.7 71 9.5 2.5 5.0 N 0.0 1018.8
08:20 14.7 71 9.5 2.5 5.0 N 0.0 1018.5
08:30 14.7 71 9.5 2.5 5.0 N 0.0 1018.5
08:40 14.7 71 9.5 2.5 5.0 N 0.0 1018.4
08:50 14.7 71 9.5 2.5 5.0 N 0.0 1018.0
09:00 14.7 71 9.5 2.5 5.0 N 0.0 1017.9
09:10 14.2 88 12.2 18.4 28.1 NE 2.1 1017.8
09:20 14.7 87 12.6 17.2 28.1 NNE 2.1 1017.6
09:30 15.4 84 12.7 15.5 29.5 NNW 2.1 1017.6
09:40 16.3 80 12.9 15.1 33.1 NNW 2.1 1017.5
09:50 16.6 76 12.4 15.5 33.1 NNW 2.1 1017.2
10:00 17.0 73 12.1 14.8 30.6 NNW 2.1 1016.9
10:10 17.5 71 12.2 17.7 30.6 NNW 2.1 1017.0
10:20 17.2 67 11.0 16.2 34.2 N 2.1 1016.7
10:30 16.9 69 11.2 15.2 35.6 NNW 2.1 1016.5
10:40 16.8 69 11.1 19.1 40.3 N 2.1 1016.5
10:50 16.9 68 11.0 17.1 42.8 N 2.1 1016.5
11:00 17.0 67 10.8 17.3 42.8 N 2.1 1016.6
11:10 16.8 68 10.9 20.5 39.2 N 2.1 1016.4
11:20 16.9 67 10.7 17.1 34.2 NW 2.1 1016.3
11:30 16.8 67 10.6 19.4 36.7 NNW 2.1 1016.0
11:40 17.3 66 10.9 17.1 30.6 N 2.1 1015.9
11:50 17.6 65 11.0 14.6 25.6 NNW 2.1 1015.6
12:00 17.6 64 10.7 17.6 37.8 NNW 2.1 1015.4
12:10 17.6 65 11.0 13.6 29.5 NNW 2.1 1014.8
12:20 17.6 63 10.5 17.4 36.7 NNW 2.1 1014.7
12:30 18.0 65 11.3 15.8 35.6 NW 2.1 1014.4
12:40 18.5 62 11.1 14.1 28.1 NNW 2.1 1014.2
12:50 18.5 58 10.1 19.0 40.3 NNW 2.1 1014.3
13:00 18.5 58 10.1 16.8 40.3 NW 2.1 1014.1
13:10 18.5 59 10.3 14.4 34.2 NNW 2.1 1014.0
13:20 18.6 60 10.7 14.1 28.1 NNW 2.1 1013.8
13:30 18.9 60 11.0 18.1 34.2 NW 2.1 1013.8
13:40 19.2 58 10.7 20.5 41.8 NW 2.1 1013.7
13:50 19.0 58 10.6 22.9 40.3 NNW 2.1 1013.4
14:00 18.9 61 11.2 18.5 34.2 NNW 2.1 1013.4
14:10 19.2 58 10.7 18.1 39.2 NNW 2.1 1013.3
14:20 19.1 59 10.9 16.5 34.2 NW 2.1 1013.1
14:30 18.9 60 11.0 18.3 31.7 NNW 2.1 1013.1
14:40 18.8 60 10.9 18.2 37.8 NNW 2.1 1013.1
14:50 18.4 61 10.8 17.6 30.6 N 2.1 1013.0
15:00 18.3 63 11.1 17.1 30.6 NNW 2.1 1013.0
15:10 18.3 64 11.4 13.5 25.6 NNW 2.1 1013.0
15:20 18.2 64 11.3 16.1 29.5 NW 2.1 1012.8
15:30 18.4 65 11.7 14.6 29.5 NNW 2.1 1012.8
15:40 18.4 65 11.7 13.5 29.5 N 2.1 1012.7
15:50 18.2 64 11.3 14.6 31.7 N 2.1 1012.8
16:00 18.2 65 11.5 13.1 24.5 NNW 2.1 1012.7
16:10 18.1 65 11.4 13.6 25.6 NW 2.1 1012.6
16:20 18.2 65 11.5 12.7 24.5 NNW 2.1 1012.5
16:30 18.0 65 11.3 13.5 27.0 N 2.1 1012.6
16:40 17.8 65 11.1 13.6 25.6 NNW 2.1 1012.6
16:50 17.8 66 11.4 11.7 23.4 N 2.1 1012.4
17:00 17.7 66 11.3 11.7 24.5 NNW 2.1 1012.4
17:10 17.6 67 11.4 11.1 19.4 NNW 2.1 1012.4
17:20 17.6 67 11.4 12.5 23.4 NW 2.1 1012.6
17:30 17.5 68 11.5 12.4 25.6 NNW 2.1 1012.5
17:40 17.4 69 11.7 13.1 24.5 NNW 2.1 1012.6
17:50 17.3 70 11.8 12.6 24.5 NNW 2.1 1012.6
18:00 17.2 70 11.7 9.7 20.9 NW 2.1 1012.8
18:10 17.2 70 11.7 8.6 18.4 NW 2.1 1012.8
18:20 17.2 71 11.9 7.8 19.4 NW 2.1 1013.1
18:30 17.1 72 12.0 8.6 25.6 NNW 2.1 1013.2
18:40 16.7 75 12.3 7.4 19.4 N 2.4 1013.3
18:50 16.4 78 12.6 4.6 9.7 NNW 2.4 1013.4
19:00 16.2 80 12.8 5.6 12.2 NNW 2.7 1013.5
19:10 16.1 82 13.0 7.5 15.8 NW 2.7 1013.7
19:20 15.9 84 13.2 7.2 19.4 NNW 2.7 1013.9
19:30 15.8 85 13.3 7.3 17.3 NW 2.7 1013.9
19:40 15.7 85 13.2 8.5 14.8 NW 2.7 1014.1
19:50 15.6 86 13.3 6.8 18.4 WNW 2.7 1014.3
20:00 15.6 86 13.3 3.6 9.7 WSW 2.7 1014.7
20:10 15.5 86 13.2 7.4 18.4 ESE 2.7 1015.0
20:20 15.2 85 12.7 9.3 25.6 WSW 3.3 1015.4
20:30 14.8 86 12.5 10.0 20.9 W 3.6 1015.5
20:40 14.5 87 12.4 6.8 15.8 WNW 4.2 1015.4
20:50 14.3 87 12.2 8.0 15.8 WNW 4.2 1015.3
21:00 14.1 87 12.0 5.5 11.2 NW 4.2 1015.0
21:10 14.0 88 12.0 3.3 11.2 NW 4.5 1015.4
21:20 14.0 88 12.0 4.3 11.2 WNW 4.5 1015.5
21:30 13.9 90 12.3 5.2 11.2 WNW 4.5 1015.7
21:40 13.7 90 12.1 6.9 15.8 W 4.8 1015.9
21:50 13.7 89 11.9 11.7 29.5 W 4.8 1016.3
22:00 13.2 87 11.1 11.5 25.6 W 4.8 1016.2
22:10 13.2 87 11.1 9.9 23.4 WSW 4.8 1016.5
22:20 13.3 87 11.2 8.7 19.4 WSW 4.8 1016.9
22:30 13.1 86 10.8 9.0 19.4 W 4.8 1016.9
22:40 13.1 86 10.8 6.4 15.8 W 4.8 1016.9
22:50 13.1 86 10.8 5.7 15.8 WNW 4.8 1017.0
23:00 13.0 86 10.7 4.7 12.2 W 4.8 1017.2
23:10 13.1 86 10.8 3.7 9.7 WNW 4.8 1017.4
23:20 13.0 86 10.7 4.2 9.7 WSW 4.8 1017.5
23:30 12.9 86 10.6 5.0 13.3 W 4.8 1017.5
23:40 12.7 85 10.2 7.0 14.8 W 4.8 1017.6
23:50 12.5 85 10.1 5.8 14.8 W 4.8 1017.5